sensor_id;sensor_type;location;lat;lon;timestamp;P1;P2;P0
32503;PMS5003;18953;45.930;13.640;2022-07-17T00:00:57;9;9;
32503;PMS5003;18953;45.930;13.640;2022-07-17T00:05:58;12;10;
32503;PMS5003;18953;45.930;13.640;2022-07-17T00:10:57;12;10;
32503;PMS5003;18953;45.930;13.640;2022-07-17T00:15:58;10;10;
32503;PMS5003;18953;45.930;13.640;2022-07-17T00:20:57;13;11;
32503;PMS5003;18953;45.930;13.640;2022-07-17T00:25:58;12;11;
32503;PMS5003;18953;45.930;13.640;2022-07-17T00:30:57;11;11;
32503;PMS5003;18953;45.930;13.640;2022-07-17T00:35:58;12;12;
32503;PMS5003;18953;45.930;13.640;2022-07-17T00:40:57;12;11;
32503;PMS5003;18953;45.930;13.640;2022-07-17T00:45:58;13;12;
32503;PMS5003;18953;45.930;13.640;2022-07-17T00:50:57;11;11;
32503;PMS5003;18953;45.930;13.640;2022-07-17T00:55:58;12;11;
32503;PMS5003;18953;45.930;13.640;2022-07-17T01:00:57;11;10;
32503;PMS5003;18953;45.930;13.640;2022-07-17T01:05:58;11;11;
32503;PMS5003;18953;45.930;13.640;2022-07-17T01:10:57;10;10;
32503;PMS5003;18953;45.930;13.640;2022-07-17T01:15:58;13;12;
32503;PMS5003;18953;45.930;13.640;2022-07-17T01:21:02;11;10;
32503;PMS5003;18953;45.930;13.640;2022-07-17T01:25:58;12;12;
32503;PMS5003;18953;45.930;13.640;2022-07-17T01:30:57;13;12;
32503;PMS5003;18953;45.930;13.640;2022-07-17T01:35:58;14;13;
32503;PMS5003;18953;45.930;13.640;2022-07-17T01:40:57;12;12;
32503;PMS5003;18953;45.930;13.640;2022-07-17T01:45:58;12;12;
32503;PMS5003;18953;45.930;13.640;2022-07-17T01:50:57;12;12;
32503;PMS5003;18953;45.930;13.640;2022-07-17T01:55:58;12;12;
32503;PMS5003;18953;45.930;13.640;2022-07-17T02:00:57;14;12;
32503;PMS5003;18953;45.930;13.640;2022-07-17T02:05:58;11;10;
32503;PMS5003;18953;45.930;13.640;2022-07-17T02:10:57;11;11;
32503;PMS5003;18953;45.930;13.640;2022-07-17T02:15:58;10;10;
32503;PMS5003;18953;45.930;13.640;2022-07-17T02:20:57;10;10;
32503;PMS5003;18953;45.930;13.640;2022-07-17T02:25:58;9;9;
32503;PMS5003;18953;45.930;13.640;2022-07-17T02:30:57;9;9;
32503;PMS5003;18953;45.930;13.640;2022-07-17T02:35:58;9;9;
32503;PMS5003;18953;45.930;13.640;2022-07-17T02:40:57;10;10;
32503;PMS5003;18953;45.930;13.640;2022-07-17T02:45:58;11;10;
32503;PMS5003;18953;45.930;13.640;2022-07-17T02:50:58;12;10;
32503;PMS5003;18953;45.930;13.640;2022-07-17T02:55:58;10;9;
32503;PMS5003;18953;45.930;13.640;2022-07-17T03:00:57;10;9;
32503;PMS5003;18953;45.930;13.640;2022-07-17T03:05:58;9;8;
32503;PMS5003;18953;45.930;13.640;2022-07-17T03:10:57;9;9;
32503;PMS5003;18953;45.930;13.640;2022-07-17T03:15:58;9;8;
32503;PMS5003;18953;45.930;13.640;2022-07-17T03:20:57;9;8;
32503;PMS5003;18953;45.930;13.640;2022-07-17T03:25:58;8;7;
32503;PMS5003;18953;45.930;13.640;2022-07-17T03:30:57;8;8;
32503;PMS5003;18953;45.930;13.640;2022-07-17T03:35:58;10;10;
32503;PMS5003;18953;45.930;13.640;2022-07-17T03:40:57;10;9;
32503;PMS5003;18953;45.930;13.640;2022-07-17T03:45:58;9;9;
32503;PMS5003;18953;45.930;13.640;2022-07-17T03:50:57;9;9;
32503;PMS5003;18953;45.930;13.640;2022-07-17T03:55:58;8;8;
32503;PMS5003;18953;45.930;13.640;2022-07-17T04:00:57;8;8;
32503;PMS5003;18953;45.930;13.640;2022-07-17T04:05:58;8;8;
32503;PMS5003;18953;45.930;13.640;2022-07-17T04:10:57;7;7;
32503;PMS5003;18953;45.930;13.640;2022-07-17T04:15:58;7;7;
32503;PMS5003;18953;45.930;13.640;2022-07-17T04:21:00;9;8;
32503;PMS5003;18953;45.930;13.640;2022-07-17T04:25:57;7;7;
32503;PMS5003;18953;45.930;13.640;2022-07-17T04:30:58;9;8;
32503;PMS5003;18953;45.930;13.640;2022-07-17T04:35:57;10;9;
32503;PMS5003;18953;45.930;13.640;2022-07-17T04:40:58;6;6;
32503;PMS5003;18953;45.930;13.640;2022-07-17T04:45:57;9;8;
32503;PMS5003;18953;45.930;13.640;2022-07-17T04:50:58;6;6;
32503;PMS5003;18953;45.930;13.640;2022-07-17T04:55:57;6;6;
32503;PMS5003;18953;45.930;13.640;2022-07-17T05:00:57;7;6;
32503;PMS5003;18953;45.930;13.640;2022-07-17T05:05:58;9;8;
32503;PMS5003;18953;45.930;13.640;2022-07-17T05:10:57;8;7;
32503;PMS5003;18953;45.930;13.640;2022-07-17T05:15:58;7;7;
32503;PMS5003;18953;45.930;13.640;2022-07-17T05:20:58;8;8;
32503;PMS5003;18953;45.930;13.640;2022-07-17T05:25:57;8;8;
32503;PMS5003;18953;45.930;13.640;2022-07-17T05:30:58;8;8;
32503;PMS5003;18953;45.930;13.640;2022-07-17T05:35:57;8;8;
32503;PMS5003;18953;45.930;13.640;2022-07-17T05:40:58;9;9;
32503;PMS5003;18953;45.930;13.640;2022-07-17T05:45:57;7;7;
32503;PMS5003;18953;45.930;13.640;2022-07-17T05:50:58;9;7;
32503;PMS5003;18953;45.930;13.640;2022-07-17T05:55:57;6;6;
32503;PMS5003;18953;45.930;13.640;2022-07-17T06:00:57;6;6;
32503;PMS5003;18953;45.930;13.640;2022-07-17T06:05:58;9;8;
32503;PMS5003;18953;45.930;13.640;2022-07-17T06:10:57;6;6;
32503;PMS5003;18953;45.930;13.640;2022-07-17T06:15:58;6;6;
32503;PMS5003;18953;45.930;13.640;2022-07-17T06:20:58;6;6;
32503;PMS5003;18953;45.930;13.640;2022-07-17T06:25:58;6;6;
32503;PMS5003;18953;45.930;13.640;2022-07-17T06:30:58;7;7;
32503;PMS5003;18953;45.930;13.640;2022-07-17T06:35:57;7;7;
32503;PMS5003;18953;45.930;13.640;2022-07-17T06:40:57;7;7;
32503;PMS5003;18953;45.930;13.640;2022-07-17T06:45:58;8;7;
32503;PMS5003;18953;45.930;13.640;2022-07-17T06:51:02;8;7;
32503;PMS5003;18953;45.930;13.640;2022-07-17T06:55:58;8;7;
32503;PMS5003;18953;45.930;13.640;2022-07-17T07:00:58;8;7;
32503;PMS5003;18953;45.930;13.640;2022-07-17T07:05:57;6;6;
32503;PMS5003;18953;45.930;13.640;2022-07-17T07:10:57;8;7;
32503;PMS5003;18953;45.930;13.640;2022-07-17T07:15:58;6;6;
32503;PMS5003;18953;45.930;13.640;2022-07-17T07:20:58;7;7;
32503;PMS5003;18953;45.930;13.640;2022-07-17T07:25:57;6;6;
32503;PMS5003;18953;45.930;13.640;2022-07-17T07:30:58;8;7;
32503;PMS5003;18953;45.930;13.640;2022-07-17T07:35:57;6;5;
32503;PMS5003;18953;45.930;13.640;2022-07-17T07:40:58;7;7;
32503;PMS5003;18953;45.930;13.640;2022-07-17T07:45:57;6;6;
32503;PMS5003;18953;45.930;13.640;2022-07-17T07:50:57;7;6;
32503;PMS5003;18953;45.930;13.640;2022-07-17T07:55:58;7;7;
32503;PMS5003;18953;45.930;13.640;2022-07-17T08:00:57;7;6;
32503;PMS5003;18953;45.930;13.640;2022-07-17T08:05:58;5;5;
32503;PMS5003;18953;45.930;13.640;2022-07-17T08:10:57;7;7;
32503;PMS5003;18953;45.930;13.640;2022-07-17T08:15:58;7;6;
32503;PMS5003;18953;45.930;13.640;2022-07-17T08:20:58;6;5;
32503;PMS5003;18953;45.930;13.640;2022-07-17T08:25:58;6;6;
32503;PMS5003;18953;45.930;13.640;2022-07-17T08:30:57;6;6;
32503;PMS5003;18953;45.930;13.640;2022-07-17T08:35:58;6;5;
32503;PMS5003;18953;45.930;13.640;2022-07-17T08:40:58;5;5;
32503;PMS5003;18953;45.930;13.640;2022-07-17T08:45:58;6;5;
32503;PMS5003;18953;45.930;13.640;2022-07-17T08:50:58;8;7;
32503;PMS5003;18953;45.930;13.640;2022-07-17T08:55:58;7;6;
32503;PMS5003;18953;45.930;13.640;2022-07-17T09:00:57;6;6;
32503;PMS5003;18953;45.930;13.640;2022-07-17T09:05:58;7;7;
32503;PMS5003;18953;45.930;13.640;2022-07-17T09:10:57;6;6;
32503;PMS5003;18953;45.930;13.640;2022-07-17T09:15:58;7;7;
32503;PMS5003;18953;45.930;13.640;2022-07-17T09:20:57;8;7;
32503;PMS5003;18953;45.930;13.640;2022-07-17T09:25:58;6;6;
32503;PMS5003;18953;45.930;13.640;2022-07-17T09:30:57;6;6;
32503;PMS5003;18953;45.930;13.640;2022-07-17T09:36:06;6;6;
32503;PMS5003;18953;45.930;13.640;2022-07-17T09:41:01;6;6;
32503;PMS5003;18953;45.930;13.640;2022-07-17T09:45:58;5;5;
32503;PMS5003;18953;45.930;13.640;2022-07-17T09:50:57;6;6;
32503;PMS5003;18953;45.930;13.640;2022-07-17T09:55:58;5;5;
32503;PMS5003;18953;45.930;13.640;2022-07-17T10:00:58;6;6;
32503;PMS5003;18953;45.930;13.640;2022-07-17T10:05:57;5;5;
32503;PMS5003;18953;45.930;13.640;2022-07-17T10:10:58;7;7;
32503;PMS5003;18953;45.930;13.640;2022-07-17T10:15:57;6;6;
32503;PMS5003;18953;45.930;13.640;2022-07-17T10:21:05;4;4;
32503;PMS5003;18953;45.930;13.640;2022-07-17T10:25:57;6;6;
32503;PMS5003;18953;45.930;13.640;2022-07-17T10:30:58;6;6;
32503;PMS5003;18953;45.930;13.640;2022-07-17T10:35:57;6;6;
32503;PMS5003;18953;45.930;13.640;2022-07-17T10:40:59;6;5;
32503;PMS5003;18953;45.930;13.640;2022-07-17T10:45:58;6;6;
32503;PMS5003;18953;45.930;13.640;2022-07-17T10:50:57;5;5;
32503;PMS5003;18953;45.930;13.640;2022-07-17T10:55:59;6;6;
32503;PMS5003;18953;45.930;13.640;2022-07-17T11:00:58;5;5;
32503;PMS5003;18953;45.930;13.640;2022-07-17T11:06:05;6;6;
32503;PMS5003;18953;45.930;13.640;2022-07-17T11:10:57;7;7;
32503;PMS5003;18953;45.930;13.640;2022-07-17T11:15:57;6;6;
32503;PMS5003;18953;45.930;13.640;2022-07-17T11:20:58;6;6;
32503;PMS5003;18953;45.930;13.640;2022-07-17T11:25:59;6;5;
32503;PMS5003;18953;45.930;13.640;2022-07-17T11:30:58;7;7;
32503;PMS5003;18953;45.930;13.640;2022-07-17T11:35:57;5;5;
32503;PMS5003;18953;45.930;13.640;2022-07-17T11:40:58;5;5;
32503;PMS5003;18953;45.930;13.640;2022-07-17T11:45:57;6;6;
32503;PMS5003;18953;45.930;13.640;2022-07-17T11:50:58;7;7;
32503;PMS5003;18953;45.930;13.640;2022-07-17T11:55:57;6;6;
32503;PMS5003;18953;45.930;13.640;2022-07-17T12:00:59;8;8;
32503;PMS5003;18953;45.930;13.640;2022-07-17T12:05:58;6;6;
32503;PMS5003;18953;45.930;13.640;2022-07-17T12:10:59;7;7;
32503;PMS5003;18953;45.930;13.640;2022-07-17T12:15:58;8;7;
32503;PMS5003;18953;45.930;13.640;2022-07-17T12:20:58;7;7;
32503;PMS5003;18953;45.930;13.640;2022-07-17T12:26:05;8;8;
32503;PMS5003;18953;45.930;13.640;2022-07-17T12:30:57;8;8;
32503;PMS5003;18953;45.930;13.640;2022-07-17T12:35:58;8;7;
32503;PMS5003;18953;45.930;13.640;2022-07-17T12:40:57;8;8;
32503;PMS5003;18953;45.930;13.640;2022-07-17T12:45:57;6;6;
32503;PMS5003;18953;45.930;13.640;2022-07-17T12:50:58;7;6;
32503;PMS5003;18953;45.930;13.640;2022-07-17T12:55:57;8;7;
32503;PMS5003;18953;45.930;13.640;2022-07-17T13:00:58;6;6;
32503;PMS5003;18953;45.930;13.640;2022-07-17T13:05:57;7;7;
32503;PMS5003;18953;45.930;13.640;2022-07-17T13:10:58;8;8;
32503;PMS5003;18953;45.930;13.640;2022-07-17T13:15:57;9;8;
32503;PMS5003;18953;45.930;13.640;2022-07-17T13:20:59;7;7;
32503;PMS5003;18953;45.930;13.640;2022-07-17T13:25:57;7;7;
32503;PMS5003;18953;45.930;13.640;2022-07-17T13:30:58;8;7;
32503;PMS5003;18953;45.930;13.640;2022-07-17T13:35:57;8;8;
32503;PMS5003;18953;45.930;13.640;2022-07-17T13:40:57;7;7;
32503;PMS5003;18953;45.930;13.640;2022-07-17T13:45:58;8;8;
32503;PMS5003;18953;45.930;13.640;2022-07-17T13:50:57;8;8;
32503;PMS5003;18953;45.930;13.640;2022-07-17T13:55:58;8;8;
32503;PMS5003;18953;45.930;13.640;2022-07-17T14:00:57;10;8;
32503;PMS5003;18953;45.930;13.640;2022-07-17T14:05:58;9;9;
32503;PMS5003;18953;45.930;13.640;2022-07-17T14:10:57;8;7;
32503;PMS5003;18953;45.930;13.640;2022-07-17T14:15:57;10;10;
32503;PMS5003;18953;45.930;13.640;2022-07-17T14:20:57;9;8;
32503;PMS5003;18953;45.930;13.640;2022-07-17T14:25:58;8;8;
32503;PMS5003;18953;45.930;13.640;2022-07-17T14:30:58;9;7;
32503;PMS5003;18953;45.930;13.640;2022-07-17T14:35:57;8;8;
32503;PMS5003;18953;45.930;13.640;2022-07-17T14:40:58;8;8;
32503;PMS5003;18953;45.930;13.640;2022-07-17T14:45:57;10;9;
32503;PMS5003;18953;45.930;13.640;2022-07-17T14:50:58;9;8;
32503;PMS5003;18953;45.930;13.640;2022-07-17T14:55:57;6;6;
32503;PMS5003;18953;45.930;13.640;2022-07-17T15:00:58;8;8;
32503;PMS5003;18953;45.930;13.640;2022-07-17T15:05:57;8;7;
32503;PMS5003;18953;45.930;13.640;2022-07-17T15:10:57;8;7;
32503;PMS5003;18953;45.930;13.640;2022-07-17T15:15:58;9;9;
32503;PMS5003;18953;45.930;13.640;2022-07-17T15:20:58;8;7;
32503;PMS5003;18953;45.930;13.640;2022-07-17T15:25:58;9;9;
32503;PMS5003;18953;45.930;13.640;2022-07-17T15:30:57;7;6;
32503;PMS5003;18953;45.930;13.640;2022-07-17T15:35:58;9;8;
32503;PMS5003;18953;45.930;13.640;2022-07-17T15:40:57;9;8;
32503;PMS5003;18953;45.930;13.640;2022-07-17T15:45:58;8;8;
32503;PMS5003;18953;45.930;13.640;2022-07-17T15:50:57;8;8;
32503;PMS5003;18953;45.930;13.640;2022-07-17T15:55:58;8;8;
32503;PMS5003;18953;45.930;13.640;2022-07-17T16:00:57;9;9;
32503;PMS5003;18953;45.930;13.640;2022-07-17T16:05:57;8;8;
32503;PMS5003;18953;45.930;13.640;2022-07-17T16:10:58;9;8;
32503;PMS5003;18953;45.930;13.640;2022-07-17T16:15:57;8;8;
32503;PMS5003;18953;45.930;13.640;2022-07-17T16:20:57;8;8;
32503;PMS5003;18953;45.930;13.640;2022-07-17T16:25:57;8;8;
32503;PMS5003;18953;45.930;13.640;2022-07-17T16:30:58;7;7;
32503;PMS5003;18953;45.930;13.640;2022-07-17T16:35:57;9;9;
32503;PMS5003;18953;45.930;13.640;2022-07-17T16:40:58;8;7;
32503;PMS5003;18953;45.930;13.640;2022-07-17T16:45:57;9;8;
32503;PMS5003;18953;45.930;13.640;2022-07-17T16:50:58;8;8;
32503;PMS5003;18953;45.930;13.640;2022-07-17T16:55:57;8;7;
32503;PMS5003;18953;45.930;13.640;2022-07-17T17:00:58;7;7;
32503;PMS5003;18953;45.930;13.640;2022-07-17T17:05:57;8;7;
32503;PMS5003;18953;45.930;13.640;2022-07-17T17:10:58;8;7;
32503;PMS5003;18953;45.930;13.640;2022-07-17T17:15:58;7;7;
32503;PMS5003;18953;45.930;13.640;2022-07-17T17:20:58;7;6;
32503;PMS5003;18953;45.930;13.640;2022-07-17T17:25:57;10;8;
32503;PMS5003;18953;45.930;13.640;2022-07-17T17:30:57;6;6;
32503;PMS5003;18953;45.930;13.640;2022-07-17T17:35:58;9;8;
32503;PMS5003;18953;45.930;13.640;2022-07-17T17:40:58;10;9;
32503;PMS5003;18953;45.930;13.640;2022-07-17T17:45:58;9;8;
32503;PMS5003;18953;45.930;13.640;2022-07-17T17:50:57;7;7;
32503;PMS5003;18953;45.930;13.640;2022-07-17T17:55:58;8;8;
32503;PMS5003;18953;45.930;13.640;2022-07-17T18:00:57;8;8;
32503;PMS5003;18953;45.930;13.640;2022-07-17T18:05:58;7;7;
32503;PMS5003;18953;45.930;13.640;2022-07-17T18:10:57;8;8;
32503;PMS5003;18953;45.930;13.640;2022-07-17T18:15:58;7;7;
32503;PMS5003;18953;45.930;13.640;2022-07-17T18:20:57;7;6;
32503;PMS5003;18953;45.930;13.640;2022-07-17T18:25:58;6;6;
32503;PMS5003;18953;45.930;13.640;2022-07-17T18:30:57;7;7;
32503;PMS5003;18953;45.930;13.640;2022-07-17T18:35:58;7;7;
32503;PMS5003;18953;45.930;13.640;2022-07-17T18:40:57;7;7;
32503;PMS5003;18953;45.930;13.640;2022-07-17T18:45:57;8;8;
32503;PMS5003;18953;45.930;13.640;2022-07-17T18:50:58;6;6;
32503;PMS5003;18953;45.930;13.640;2022-07-17T18:55:57;9;8;
32503;PMS5003;18953;45.930;13.640;2022-07-17T19:00:58;6;6;
32503;PMS5003;18953;45.930;13.640;2022-07-17T19:05:57;10;10;
32503;PMS5003;18953;45.930;13.640;2022-07-17T19:10:58;7;7;
32503;PMS5003;18953;45.930;13.640;2022-07-17T19:15:57;7;6;
32503;PMS5003;18953;45.930;13.640;2022-07-17T19:20:58;7;6;
32503;PMS5003;18953;45.930;13.640;2022-07-17T19:25:57;6;6;
32503;PMS5003;18953;45.930;13.640;2022-07-17T19:30:58;8;8;
32503;PMS5003;18953;45.930;13.640;2022-07-17T19:35:57;8;7;
32503;PMS5003;18953;45.930;13.640;2022-07-17T19:40:58;8;8;
32503;PMS5003;18953;45.930;13.640;2022-07-17T19:45:57;7;7;
32503;PMS5003;18953;45.930;13.640;2022-07-17T19:50:58;8;8;
32503;PMS5003;18953;45.930;13.640;2022-07-17T19:55:58;8;8;
32503;PMS5003;18953;45.930;13.640;2022-07-17T20:00:58;9;8;
32503;PMS5003;18953;45.930;13.640;2022-07-17T20:05:57;8;7;
32503;PMS5003;18953;45.930;13.640;2022-07-17T20:10:58;7;7;
32503;PMS5003;18953;45.930;13.640;2022-07-17T20:15:58;7;7;
32503;PMS5003;18953;45.930;13.640;2022-07-17T20:20:58;7;6;
32503;PMS5003;18953;45.930;13.640;2022-07-17T20:25:57;8;8;
32503;PMS5003;18953;45.930;13.640;2022-07-17T20:30:58;7;7;
32503;PMS5003;18953;45.930;13.640;2022-07-17T20:35:57;7;7;
32503;PMS5003;18953;45.930;13.640;2022-07-17T20:40:58;8;8;
32503;PMS5003;18953;45.930;13.640;2022-07-17T20:45:57;5;5;
32503;PMS5003;18953;45.930;13.640;2022-07-17T20:50:58;6;6;
32503;PMS5003;18953;45.930;13.640;2022-07-17T20:55:57;7;6;
32503;PMS5003;18953;45.930;13.640;2022-07-17T21:00:58;7;6;
32503;PMS5003;18953;45.930;13.640;2022-07-17T21:05:57;7;7;
32503;PMS5003;18953;45.930;13.640;2022-07-17T21:10:58;7;7;
32503;PMS5003;18953;45.930;13.640;2022-07-17T21:15:57;6;6;
32503;PMS5003;18953;45.930;13.640;2022-07-17T21:20:58;7;6;
32503;PMS5003;18953;45.930;13.640;2022-07-17T21:25:57;7;6;
32503;PMS5003;18953;45.930;13.640;2022-07-17T21:30:58;6;6;
32503;PMS5003;18953;45.930;13.640;2022-07-17T21:35:57;7;7;
32503;PMS5003;18953;45.930;13.640;2022-07-17T21:40:58;8;8;
32503;PMS5003;18953;45.930;13.640;2022-07-17T21:45:57;6;6;
32503;PMS5003;18953;45.930;13.640;2022-07-17T21:50:58;6;6;
32503;PMS5003;18953;45.930;13.640;2022-07-17T21:55:57;7;6;
32503;PMS5003;18953;45.930;13.640;2022-07-17T22:00:58;7;7;
32503;PMS5003;18953;45.930;13.640;2022-07-17T22:05:57;7;7;
32503;PMS5003;18953;45.930;13.640;2022-07-17T22:10:58;7;6;
32503;PMS5003;18953;45.930;13.640;2022-07-17T22:15:58;11;11;
32503;PMS5003;18953;45.930;13.640;2022-07-17T22:20:58;7;6;
32503;PMS5003;18953;45.930;13.640;2022-07-17T22:25:57;7;7;
32503;PMS5003;18953;45.930;13.640;2022-07-17T22:30:58;6;6;
32503;PMS5003;18953;45.930;13.640;2022-07-17T22:35:57;6;6;
32503;PMS5003;18953;45.930;13.640;2022-07-17T22:40:58;8;7;
32503;PMS5003;18953;45.930;13.640;2022-07-17T22:45:57;7;7;
32503;PMS5003;18953;45.930;13.640;2022-07-17T22:50:58;8;7;
32503;PMS5003;18953;45.930;13.640;2022-07-17T22:55:57;6;6;
32503;PMS5003;18953;45.930;13.640;2022-07-17T23:00:58;7;7;
32503;PMS5003;18953;45.930;13.640;2022-07-17T23:05:57;6;6;
32503;PMS5003;18953;45.930;13.640;2022-07-17T23:10:58;6;6;
32503;PMS5003;18953;45.930;13.640;2022-07-17T23:15:57;8;7;
32503;PMS5003;18953;45.930;13.640;2022-07-17T23:20:58;6;5;
32503;PMS5003;18953;45.930;13.640;2022-07-17T23:25:57;7;7;
32503;PMS5003;18953;45.930;13.640;2022-07-17T23:30:58;8;7;
32503;PMS5003;18953;45.930;13.640;2022-07-17T23:35:57;7;7;
32503;PMS5003;18953;45.930;13.640;2022-07-17T23:40:58;6;5;
32503;PMS5003;18953;45.930;13.640;2022-07-17T23:45:57;7;6;
32503;PMS5003;18953;45.930;13.640;2022-07-17T23:50:58;7;7;
32503;PMS5003;18953;45.930;13.640;2022-07-17T23:55:57;7;6;
